AAL200 KSTL-KBDL
Flight info
| Callsign | AAL200 |
|---|---|
| Flight time | 2h 1m |
| Altitude | 37000 |
| Route | JHART7 RINTE KLYNE Q29 JHW Q82 MEMMS WILET STELA1 |
| Aircraft | B738/M-SDE2E3FGHIRWXY/LB1 |
Departure
| Time | 2025-12-29 22:44 |
|---|---|
| Airport | St. Louis Lambert International Airport (KSTL) |
Arrival
| Time | 2025-12-30 00:46 |
|---|---|
| Airport | Bradley International Airport (KBDL) |
| Time | Latitude | Longitude | Altitude | Speed | Heading |
|---|---|---|---|---|---|
| 2025-12-29 22:31 | 38.74566 | -90.37648 | 546 ft | 0 kts | 84° |
| 2025-12-29 22:37 | 38.74586 | -90.37564 | 549 ft | 7 kts | 60° |
| 2025-12-29 22:38 | 38.74746 | -90.37527 | 545 ft | 15 kts | 348° |
| 2025-12-29 22:38 | 38.74847 | -90.37296 | 543 ft | 17 kts | 96° |
| 2025-12-29 22:39 | 38.74736 | -90.37029 | 547 ft | 16 kts | 123° |
| 2025-12-29 22:39 | 38.74614 | -90.36771 | 547 ft | 17 kts | 119° |
| 2025-12-29 22:40 | 38.74474 | -90.36487 | 546 ft | 21 kts | 123° |
| 2025-12-29 22:40 | 38.74394 | -90.36321 | 546 ft | 22 kts | 121° |
| 2025-12-29 22:40 | 38.74213 | -90.35957 | 546 ft | 25 kts | 121° |
| 2025-12-29 22:41 | 38.73915 | -90.35351 | 552 ft | 27 kts | 123° |
| 2025-12-29 22:42 | 38.73719 | -90.34958 | 569 ft | 23 kts | 121° |
| 2025-12-29 22:42 | 38.73721 | -90.34710 | 584 ft | 13 kts | 33° |
| 2025-12-29 22:43 | 38.73934 | -90.34961 | 564 ft | 67 kts | 301° |
| 2025-12-29 22:43 | 38.74920 | -90.36918 | 660 ft | 176 kts | 303° |
| 2025-12-29 22:43 | 38.75622 | -90.38180 | 1551 ft | 174 kts | 307° |
| 2025-12-29 22:44 | 38.77548 | -90.39762 | 2895 ft | 185 kts | 346° |
| 2025-12-29 22:45 | 38.81520 | -90.41191 | 4348 ft | 212 kts | 340° |
| 2025-12-29 22:45 | 38.84451 | -90.41133 | 5670 ft | 234 kts | 16° |
| 2025-12-29 22:46 | 38.87413 | -90.39069 | 7006 ft | 253 kts | 33° |
| 2025-12-29 22:46 | 38.89875 | -90.32538 | 8831 ft | 295 kts | 72° |
| 2025-12-29 22:47 | 38.89635 | -90.27128 | 9998 ft | 318 kts | 95° |
| 2025-12-29 22:47 | 38.88817 | -90.21371 | 10825 ft | 343 kts | 96° |
| 2025-12-29 22:48 | 38.87510 | -90.11739 | 11669 ft | 389 kts | 96° |
| 2025-12-29 22:49 | 38.86561 | -90.04726 | 12659 ft | 404 kts | 96° |
| 2025-12-29 22:49 | 38.85099 | -89.93973 | 14351 ft | 417 kts | 96° |
| 2025-12-29 22:50 | 38.84604 | -89.90321 | 14978 ft | 419 kts | 96° |
| 2025-12-29 22:50 | 38.83094 | -89.79199 | 16678 ft | 429 kts | 96° |
| 2025-12-29 22:51 | 38.82054 | -89.71615 | 17778 ft | 436 kts | 96° |
| 2025-12-29 22:51 | 38.81000 | -89.63979 | 18808 ft | 442 kts | 96° |
| 2025-12-29 22:52 | 38.80466 | -89.60093 | 19264 ft | 447 kts | 96° |
| 2025-12-29 22:52 | 38.79657 | -89.52220 | 20343 ft | 447 kts | 87° |
| 2025-12-29 22:53 | 38.80006 | -89.44332 | 21331 ft | 445 kts | 77° |
| 2025-12-29 22:53 | 38.81482 | -89.32580 | 22716 ft | 452 kts | 75° |
| 2025-12-29 22:54 | 38.82556 | -89.24612 | 23646 ft | 456 kts | 75° |
| 2025-12-29 22:54 | 38.83603 | -89.16588 | 24554 ft | 460 kts | 75° |
| 2025-12-29 22:55 | 38.84638 | -89.08459 | 25327 ft | 467 kts | 76° |
| 2025-12-29 22:57 | 38.88281 | -88.78973 | 27780 ft | 492 kts | 76° |
| 2025-12-29 22:59 | 38.94139 | -88.40575 | 31441 ft | 485 kts | 65° |
| 2025-12-29 23:01 | 39.02232 | -88.11697 | 32596 ft | 497 kts | 65° |
| 2025-12-29 23:03 | 39.11577 | -87.77930 | 33854 ft | 508 kts | 65° |
| 2025-12-29 23:05 | 39.20916 | -87.43668 | 35725 ft | 508 kts | 65° |
| 2025-12-29 23:07 | 39.30268 | -87.09013 | 36920 ft | 516 kts | 66° |
| 2025-12-29 23:09 | 39.39502 | -86.74126 | 37216 ft | 516 kts | 66° |
| 2025-12-29 23:11 | 39.48672 | -86.39125 | 37218 ft | 518 kts | 67° |
| 2025-12-29 23:13 | 39.57736 | -86.03992 | 37217 ft | 516 kts | 68° |
| 2025-12-29 23:15 | 39.67935 | -85.69432 | 37192 ft | 511 kts | 58° |
| 2025-12-29 23:17 | 39.80506 | -85.36524 | 37159 ft | 512 kts | 59° |
| 2025-12-29 23:19 | 39.92849 | -85.03275 | 37108 ft | 514 kts | 59° |
| 2025-12-29 23:21 | 40.05119 | -84.69799 | 37053 ft | 512 kts | 59° |
| 2025-12-29 23:23 | 40.17310 | -84.36184 | 37090 ft | 516 kts | 60° |
| 2025-12-29 23:24 | 40.28005 | -84.06808 | 37038 ft | 512 kts | 56° |
| 2025-12-29 23:27 | 40.46343 | -83.73215 | 36972 ft | 502 kts | 47° |
| 2025-12-29 23:28 | 40.60834 | -83.47388 | 36957 ft | 503 kts | 47° |
| 2025-12-29 23:31 | 40.79650 | -83.14442 | 36963 ft | 502 kts | 46° |
| 2025-12-29 23:32 | 40.94558 | -82.89001 | 36914 ft | 503 kts | 46° |
| 2025-12-29 23:35 | 41.15320 | -82.52298 | 36887 ft | 503 kts | 54° |
| 2025-12-29 23:37 | 41.26955 | -82.23502 | 36900 ft | 508 kts | 58° |
| 2025-12-29 23:39 | 41.40665 | -81.85691 | 36869 ft | 509 kts | 65° |
| 2025-12-29 23:41 | 41.50077 | -81.55426 | 36868 ft | 506 kts | 64° |
| 2025-12-29 23:43 | 41.60959 | -81.20778 | 36841 ft | 506 kts | 64° |
| 2025-12-29 23:45 | 41.71696 | -80.86093 | 36781 ft | 507 kts | 65° |
| 2025-12-29 23:47 | 41.82268 | -80.51118 | 36787 ft | 509 kts | 67° |
| 2025-12-29 23:49 | 41.91753 | -80.15415 | 36761 ft | 510 kts | 68° |
| 2025-12-29 23:51 | 42.01273 | -79.79635 | 36722 ft | 510 kts | 69° |
| 2025-12-29 23:53 | 42.10645 | -79.43845 | 36639 ft | 509 kts | 69° |
| 2025-12-29 23:55 | 42.19475 | -79.07834 | 36641 ft | 509 kts | 77° |
| 2025-12-29 23:57 | 42.24168 | -78.70344 | 36516 ft | 510 kts | 81° |
| 2025-12-29 23:59 | 42.28836 | -78.32561 | 36527 ft | 512 kts | 81° |
| 2025-12-30 00:01 | 42.33396 | -77.94600 | 36511 ft | 514 kts | 82° |
| 2025-12-30 00:03 | 42.37867 | -77.56494 | 36504 ft | 516 kts | 82° |
| 2025-12-30 00:05 | 42.42205 | -77.18102 | 36493 ft | 519 kts | 83° |
| 2025-12-30 00:07 | 42.46391 | -76.79604 | 36573 ft | 517 kts | 83° |
| 2025-12-30 00:09 | 42.50517 | -76.41038 | 36527 ft | 519 kts | 83° |
| 2025-12-30 00:11 | 42.54488 | -76.02517 | 36528 ft | 520 kts | 84° |
| 2025-12-30 00:13 | 42.52609 | -75.64510 | 33931 ft | 508 kts | 107° |
| 2025-12-30 00:15 | 42.46820 | -75.22485 | 29098 ft | 512 kts | 96° |
| 2025-12-30 00:17 | 42.47315 | -74.89351 | 25067 ft | 493 kts | 89° |
| 2025-12-30 00:17 | 42.47600 | -74.75611 | 23441 ft | 484 kts | 90° |
| 2025-12-30 00:18 | 42.47681 | -74.71119 | 22896 ft | 481 kts | 91° |
| 2025-12-30 00:18 | 42.47838 | -74.62251 | 22395 ft | 458 kts | 91° |
| 2025-12-30 00:19 | 42.47987 | -74.53929 | 22373 ft | 425 kts | 91° |
| 2025-12-30 00:19 | 42.48056 | -74.50000 | 22392 ft | 416 kts | 91° |
| 2025-12-30 00:19 | 42.48176 | -74.42129 | 22381 ft | 421 kts | 92° |
| 2025-12-30 00:20 | 42.48345 | -74.30330 | 22362 ft | 419 kts | 93° |
| 2025-12-30 00:21 | 42.48458 | -74.22471 | 22355 ft | 418 kts | 94° |
| 2025-12-30 00:21 | 42.48560 | -74.14616 | 22387 ft | 417 kts | 95° |
| 2025-12-30 00:22 | 42.48663 | -74.06754 | 22144 ft | 420 kts | 95° |
| 2025-12-30 00:22 | 42.48761 | -73.99013 | 21660 ft | 409 kts | 95° |
| 2025-12-30 00:23 | 42.48853 | -73.91304 | 21201 ft | 408 kts | 96° |
| 2025-12-30 00:23 | 42.48933 | -73.83696 | 20664 ft | 402 kts | 95° |
| 2025-12-30 00:24 | 42.49008 | -73.76157 | 20180 ft | 401 kts | 95° |
| 2025-12-30 00:24 | 42.49076 | -73.68674 | 19676 ft | 399 kts | 96° |
| 2025-12-30 00:24 | 42.49105 | -73.64949 | 19212 ft | 397 kts | 96° |
| 2025-12-30 00:25 | 42.49191 | -73.53886 | 17896 ft | 390 kts | 95° |
| 2025-12-30 00:26 | 42.49065 | -73.46611 | 16922 ft | 376 kts | 106° |
| 2025-12-30 00:26 | 42.46898 | -73.40895 | 16403 ft | 328 kts | 144° |
| 2025-12-30 00:27 | 42.43630 | -73.36634 | 15878 ft | 322 kts | 146° |
| 2025-12-30 00:27 | 42.40486 | -73.32447 | 15104 ft | 316 kts | 145° |
| 2025-12-30 00:28 | 42.37445 | -73.28258 | 14328 ft | 310 kts | 144° |
| 2025-12-30 00:28 | 42.34461 | -73.24133 | 13563 ft | 304 kts | 145° |
| 2025-12-30 00:28 | 42.32987 | -73.22089 | 13191 ft | 301 kts | 144° |
| 2025-12-30 00:29 | 42.28652 | -73.16106 | 12096 ft | 296 kts | 143° |
| 2025-12-30 00:30 | 42.24159 | -73.09924 | 10481 ft | 317 kts | 137° |
| 2025-12-30 00:30 | 42.22598 | -73.04282 | 9404 ft | 337 kts | 93° |
| 2025-12-30 00:31 | 42.22803 | -72.97954 | 8266 ft | 336 kts | 86° |
| 2025-12-30 00:31 | 42.23027 | -72.91830 | 7178 ft | 322 kts | 86° |
| 2025-12-30 00:32 | 42.23098 | -72.88841 | 6629 ft | 317 kts | 86° |
| 2025-12-30 00:32 | 42.23194 | -72.83012 | 5532 ft | 307 kts | 87° |
| 2025-12-30 00:33 | 42.23287 | -72.77407 | 4973 ft | 289 kts | 86° |
| 2025-12-30 00:33 | 42.23419 | -72.69601 | 4701 ft | 278 kts | 87° |
| 2025-12-30 00:34 | 42.23523 | -72.64294 | 3683 ft | 292 kts | 87° |
| 2025-12-30 00:34 | 42.23645 | -72.58789 | 2954 ft | 289 kts | 86° |
| 2025-12-30 00:35 | 42.23701 | -72.56170 | 2944 ft | 274 kts | 86° |
| 2025-12-30 00:35 | 42.23799 | -72.51174 | 2970 ft | 264 kts | 86° |
| 2025-12-30 00:36 | 42.23898 | -72.46243 | 2961 ft | 263 kts | 86° |
| 2025-12-30 00:36 | 42.23981 | -72.41331 | 2948 ft | 263 kts | 93° |
| 2025-12-30 00:37 | 42.22290 | -72.37322 | 2946 ft | 235 kts | 157° |
| 2025-12-30 00:37 | 42.18851 | -72.38892 | 2901 ft | 184 kts | 230° |
| 2025-12-30 00:38 | 42.16911 | -72.41174 | 2698 ft | 183 kts | 225° |
| 2025-12-30 00:38 | 42.14843 | -72.43347 | 3219 ft | 199 kts | 222° |
| 2025-12-30 00:39 | 42.13661 | -72.44413 | 3106 ft | 209 kts | 220° |
| 2025-12-30 00:39 | 42.11241 | -72.46665 | 2366 ft | 216 kts | 227° |
| 2025-12-30 00:40 | 42.08864 | -72.49262 | 1757 ft | 215 kts | 226° |
| 2025-12-30 00:40 | 42.06876 | -72.51738 | 2147 ft | 183 kts | 229° |
| 2025-12-30 00:41 | 42.05084 | -72.54105 | 2613 ft | 179 kts | 230° |
| 2025-12-30 00:41 | 42.02418 | -72.57610 | 2281 ft | 174 kts | 229° |
| 2025-12-30 00:42 | 42.00877 | -72.59618 | 1813 ft | 142 kts | 230° |
| 2025-12-30 00:42 | 42.00173 | -72.60550 | 1655 ft | 142 kts | 230° |
| 2025-12-30 00:43 | 41.98761 | -72.62395 | 1241 ft | 142 kts | 228° |
| 2025-12-30 00:43 | 41.97367 | -72.64211 | 829 ft | 130 kts | 227° |
| 2025-12-30 00:44 | 41.96068 | -72.65911 | 471 ft | 131 kts | 225° |
| 2025-12-30 00:44 | 41.94771 | -72.67602 | 179 ft | 120 kts | 226° |
| 2025-12-30 00:45 | 41.93942 | -72.68699 | 183 ft | 60 kts | 223° |
| 2025-12-30 00:45 | 41.93573 | -72.69008 | 184 ft | 0 kts | 133° |
| 2025-12-30 00:46 | 41.93559 | -72.68984 | 183 ft | 7 kts | 118° |
| 2025-12-30 00:46 | 41.93612 | -72.68819 | 184 ft | 12 kts | 44° |
| 2025-12-30 00:47 | 41.93594 | -72.68649 | 186 ft | 11 kts | 134° |
| 2025-12-30 00:47 | 41.93434 | -72.68421 | 187 ft | 20 kts | 131° |
| 2025-12-30 00:48 | 41.93232 | -72.68222 | 186 ft | 11 kts | 176° |
| 2025-12-30 00:48 | 41.93167 | -72.68296 | 186 ft | 4 kts | 270° |